sensor_id;sensor_type;location;lat;lon;timestamp;P1;durP1;ratioP1;P2;durP2;ratioP2
74538;SDS011;63087;51.086;-115.332;2022-09-17T00:01:42;7.70;;;4.20;;
74538;SDS011;63087;51.086;-115.332;2022-09-17T00:04:10;4.80;;;2.50;;
74538;SDS011;63087;51.086;-115.332;2022-09-17T00:06:37;6.40;;;2.70;;
74538;SDS011;63087;51.086;-115.332;2022-09-17T00:09:06;7.60;;;3.60;;
74538;SDS011;63087;51.086;-115.332;2022-09-17T00:11:40;7.50;;;3.20;;
74538;SDS011;63087;51.086;-115.332;2022-09-17T00:14:15;6.30;;;3.10;;
74538;SDS011;63087;51.086;-115.332;2022-09-17T00:16:47;6.30;;;3.00;;
74538;SDS011;63087;51.086;-115.332;2022-09-17T00:19:18;7.30;;;4.10;;
74538;SDS011;63087;51.086;-115.332;2022-09-17T00:21:50;6.60;;;3.10;;
74538;SDS011;63087;51.086;-115.332;2022-09-17T00:24:19;5.90;;;2.80;;
74538;SDS011;63087;51.086;-115.332;2022-09-17T00:26:51;6.40;;;3.00;;
74538;SDS011;63087;51.086;-115.332;2022-09-17T00:29:18;5.50;;;2.50;;
74538;SDS011;63087;51.086;-115.332;2022-09-17T00:31:47;4.80;;;2.50;;
74538;SDS011;63087;51.086;-115.332;2022-09-17T00:34:18;6.80;;;3.40;;
74538;SDS011;63087;51.086;-115.332;2022-09-17T00:36:47;6.30;;;3.10;;
74538;SDS011;63087;51.086;-115.332;2022-09-17T00:39:16;5.80;;;2.30;;
74538;SDS011;63087;51.086;-115.332;2022-09-17T00:41:44;7.30;;;3.50;;
74538;SDS011;63087;51.086;-115.332;2022-09-17T00:44:49;6.30;;;3.10;;
74538;SDS011;63087;51.086;-115.332;2022-09-17T00:47:31;6.10;;;2.90;;
74538;SDS011;63087;51.086;-115.332;2022-09-17T00:50:09;6.00;;;3.40;;
74538;SDS011;63087;51.086;-115.332;2022-09-17T00:52:46;5.30;;;2.90;;
74538;SDS011;63087;51.086;-115.332;2022-09-17T00:55:28;5.70;;;2.70;;
74538;SDS011;63087;51.086;-115.332;2022-09-17T00:58:14;7.50;;;3.80;;
74538;SDS011;63087;51.086;-115.332;2022-09-17T01:00:52;4.80;;;2.40;;
74538;SDS011;63087;51.086;-115.332;2022-09-17T01:03:24;5.10;;;2.60;;
74538;SDS011;63087;51.086;-115.332;2022-09-17T01:09:30;4.80;;;2.30;;
74538;SDS011;63087;51.086;-115.332;2022-09-17T01:24:37;8.00;;;3.40;;
74538;SDS011;63087;51.086;-115.332;2022-09-17T01:34:29;7.60;;;3.80;;
74538;SDS011;63087;51.086;-115.332;2022-09-17T01:39:51;6.40;;;3.20;;
74538;SDS011;63087;51.086;-115.332;2022-09-17T01:43:22;6.00;;;2.60;;
74538;SDS011;63087;51.086;-115.332;2022-09-17T01:46:13;6.40;;;2.90;;
74538;SDS011;63087;51.086;-115.332;2022-09-17T01:49:01;6.40;;;2.80;;
74538;SDS011;63087;51.086;-115.332;2022-09-17T01:51:47;5.90;;;2.80;;
74538;SDS011;63087;51.086;-115.332;2022-09-17T01:54:44;7.40;;;3.40;;
74538;SDS011;63087;51.086;-115.332;2022-09-17T02:00:49;7.70;;;4.10;;
74538;SDS011;63087;51.086;-115.332;2022-09-17T02:03:41;7.00;;;3.50;;
74538;SDS011;63087;51.086;-115.332;2022-09-17T02:06:36;6.70;;;3.00;;
74538;SDS011;63087;51.086;-115.332;2022-09-17T02:09:43;5.90;;;2.60;;
74538;SDS011;63087;51.086;-115.332;2022-09-17T02:12:42;5.50;;;2.20;;
74538;SDS011;63087;51.086;-115.332;2022-09-17T02:15:33;7.50;;;3.40;;
74538;SDS011;63087;51.086;-115.332;2022-09-17T02:27:38;6.90;;;3.20;;
74538;SDS011;63087;51.086;-115.332;2022-09-17T02:30:33;7.40;;;3.10;;
74538;SDS011;63087;51.086;-115.332;2022-09-17T02:33:12;7.70;;;3.30;;
74538;SDS011;63087;51.086;-115.332;2022-09-17T02:35:50;6.00;;;3.30;;
74538;SDS011;63087;51.086;-115.332;2022-09-17T02:38:30;7.90;;;4.30;;
74538;SDS011;63087;51.086;-115.332;2022-09-17T02:48:20;8.50;;;4.20;;
74538;SDS011;63087;51.086;-115.332;2022-09-17T02:57:45;8.10;;;2.70;;
74538;SDS011;63087;51.086;-115.332;2022-09-17T03:00:32;7.10;;;3.20;;
74538;SDS011;63087;51.086;-115.332;2022-09-17T03:03:18;36.20;;;20.90;;
74538;SDS011;63087;51.086;-115.332;2022-09-17T03:06:01;13.00;;;6.40;;
74538;SDS011;63087;51.086;-115.332;2022-09-17T03:08:40;8.60;;;4.00;;
74538;SDS011;63087;51.086;-115.332;2022-09-17T03:11:33;7.90;;;3.40;;
74538;SDS011;63087;51.086;-115.332;2022-09-17T03:14:02;7.10;;;2.90;;
74538;SDS011;63087;51.086;-115.332;2022-09-17T03:16:30;5.80;;;2.90;;
74538;SDS011;63087;51.086;-115.332;2022-09-17T03:18:59;9.80;;;4.50;;
74538;SDS011;63087;51.086;-115.332;2022-09-17T03:21:26;7.20;;;3.30;;
74538;SDS011;63087;51.086;-115.332;2022-09-17T03:23:57;9.80;;;4.70;;
74538;SDS011;63087;51.086;-115.332;2022-09-17T03:26:27;8.50;;;4.30;;
74538;SDS011;63087;51.086;-115.332;2022-09-17T03:29:10;6.10;;;2.60;;
74538;SDS011;63087;51.086;-115.332;2022-09-17T03:34:25;8.20;;;3.20;;
74538;SDS011;63087;51.086;-115.332;2022-09-17T03:36:57;6.20;;;2.90;;
74538;SDS011;63087;51.086;-115.332;2022-09-17T03:39:24;10.00;;;4.70;;
74538;SDS011;63087;51.086;-115.332;2022-09-17T03:41:51;6.80;;;3.80;;
74538;SDS011;63087;51.086;-115.332;2022-09-17T03:44:18;5.50;;;2.80;;
74538;SDS011;63087;51.086;-115.332;2022-09-17T03:47:09;9.10;;;4.20;;
74538;SDS011;63087;51.086;-115.332;2022-09-17T03:49:45;7.70;;;3.70;;
74538;SDS011;63087;51.086;-115.332;2022-09-17T03:52:20;6.10;;;3.10;;
74538;SDS011;63087;51.086;-115.332;2022-09-17T03:54:53;8.40;;;4.20;;
74538;SDS011;63087;51.086;-115.332;2022-09-17T03:57:23;5.50;;;2.20;;
74538;SDS011;63087;51.086;-115.332;2022-09-17T04:03:08;7.70;;;3.00;;
74538;SDS011;63087;51.086;-115.332;2022-09-17T04:05:38;8.70;;;4.30;;
74538;SDS011;63087;51.086;-115.332;2022-09-17T04:08:05;7.10;;;3.70;;
74538;SDS011;63087;51.086;-115.332;2022-09-17T04:10:32;7.30;;;3.30;;
74538;SDS011;63087;51.086;-115.332;2022-09-17T04:13:02;8.90;;;3.90;;
74538;SDS011;63087;51.086;-115.332;2022-09-17T04:15:35;7.10;;;3.30;;
74538;SDS011;63087;51.086;-115.332;2022-09-17T04:18:11;7.90;;;4.10;;
74538;SDS011;63087;51.086;-115.332;2022-09-17T04:20:45;6.10;;;3.10;;
74538;SDS011;63087;51.086;-115.332;2022-09-17T04:23:12;6.20;;;2.80;;
74538;SDS011;63087;51.086;-115.332;2022-09-17T04:25:45;8.90;;;4.40;;
74538;SDS011;63087;51.086;-115.332;2022-09-17T04:28:19;5.80;;;2.80;;
74538;SDS011;63087;51.086;-115.332;2022-09-17T04:31:15;6.90;;;3.30;;
74538;SDS011;63087;51.086;-115.332;2022-09-17T04:33:45;5.50;;;2.40;;
74538;SDS011;63087;51.086;-115.332;2022-09-17T04:36:13;6.90;;;3.70;;
74538;SDS011;63087;51.086;-115.332;2022-09-17T04:38:39;7.70;;;3.30;;
74538;SDS011;63087;51.086;-115.332;2022-09-17T04:41:11;8.30;;;4.20;;
74538;SDS011;63087;51.086;-115.332;2022-09-17T04:43:39;6.50;;;3.20;;
74538;SDS011;63087;51.086;-115.332;2022-09-17T04:46:06;10.90;;;4.40;;
74538;SDS011;63087;51.086;-115.332;2022-09-17T04:48:45;7.20;;;3.40;;
74538;SDS011;63087;51.086;-115.332;2022-09-17T04:51:12;8.40;;;4.20;;
74538;SDS011;63087;51.086;-115.332;2022-09-17T04:53:44;8.70;;;4.00;;
74538;SDS011;63087;51.086;-115.332;2022-09-17T04:56:35;5.30;;;2.30;;
74538;SDS011;63087;51.086;-115.332;2022-09-17T04:59:05;5.70;;;2.90;;
74538;SDS011;63087;51.086;-115.332;2022-09-17T05:01:32;6.40;;;2.50;;
74538;SDS011;63087;51.086;-115.332;2022-09-17T05:03:59;8.40;;;3.90;;
74538;SDS011;63087;51.086;-115.332;2022-09-17T05:06:47;5.80;;;2.80;;
74538;SDS011;63087;51.086;-115.332;2022-09-17T05:09:25;7.00;;;3.10;;
74538;SDS011;63087;51.086;-115.332;2022-09-17T05:11:57;6.70;;;3.60;;
74538;SDS011;63087;51.086;-115.332;2022-09-17T05:14:28;6.10;;;2.80;;
74538;SDS011;63087;51.086;-115.332;2022-09-17T05:16:57;4.60;;;2.30;;
74538;SDS011;63087;51.086;-115.332;2022-09-17T05:19:24;5.10;;;2.60;;
74538;SDS011;63087;51.086;-115.332;2022-09-17T05:21:54;2.90;;;1.10;;
74538;SDS011;63087;51.086;-115.332;2022-09-17T05:24:47;5.20;;;1.80;;
74538;SDS011;63087;51.086;-115.332;2022-09-17T05:27:31;5.50;;;2.10;;
74538;SDS011;63087;51.086;-115.332;2022-09-17T05:29:58;3.60;;;1.70;;
74538;SDS011;63087;51.086;-115.332;2022-09-17T05:32:28;2.00;;;0.90;;
74538;SDS011;63087;51.086;-115.332;2022-09-17T05:34:55;2.60;;;0.90;;
74538;SDS011;63087;51.086;-115.332;2022-09-17T05:37:27;2.20;;;0.90;;
74538;SDS011;63087;51.086;-115.332;2022-09-17T05:40:05;2.50;;;0.80;;
74538;SDS011;63087;51.086;-115.332;2022-09-17T05:42:36;2.40;;;0.80;;
74538;SDS011;63087;51.086;-115.332;2022-09-17T05:45:36;1.30;;;0.60;;
74538;SDS011;63087;51.086;-115.332;2022-09-17T05:48:13;1.60;;;0.60;;
74538;SDS011;63087;51.086;-115.332;2022-09-17T05:51:14;1.30;;;0.50;;
74538;SDS011;63087;51.086;-115.332;2022-09-17T05:54:21;2.20;;;0.40;;
74538;SDS011;63087;51.086;-115.332;2022-09-17T05:57:15;1.80;;;0.60;;
74538;SDS011;63087;51.086;-115.332;2022-09-17T05:59:55;1.10;;;0.30;;
74538;SDS011;63087;51.086;-115.332;2022-09-17T06:02:32;1.30;;;0.50;;
74538;SDS011;63087;51.086;-115.332;2022-09-17T06:05:00;1.70;;;0.40;;
74538;SDS011;63087;51.086;-115.332;2022-09-17T06:07:28;2.10;;;0.40;;
74538;SDS011;63087;51.086;-115.332;2022-09-17T06:09:57;2.40;;;0.50;;
74538;SDS011;63087;51.086;-115.332;2022-09-17T06:12:30;2.60;;;0.60;;
74538;SDS011;63087;51.086;-115.332;2022-09-17T06:18:56;2.30;;;1.00;;
74538;SDS011;63087;51.086;-115.332;2022-09-17T06:21:43;2.40;;;0.60;;
74538;SDS011;63087;51.086;-115.332;2022-09-17T06:27:40;2.40;;;0.80;;
74538;SDS011;63087;51.086;-115.332;2022-09-17T06:35:00;2.70;;;0.70;;
74538;SDS011;63087;51.086;-115.332;2022-09-17T06:38:09;2.50;;;0.80;;
74538;SDS011;63087;51.086;-115.332;2022-09-17T06:44:54;1.80;;;0.50;;
74538;SDS011;63087;51.086;-115.332;2022-09-17T06:47:29;2.10;;;0.50;;
74538;SDS011;63087;51.086;-115.332;2022-09-17T06:50:12;2.30;;;0.90;;
74538;SDS011;63087;51.086;-115.332;2022-09-17T06:56:06;1.60;;;0.60;;
74538;SDS011;63087;51.086;-115.332;2022-09-17T06:59:01;1.30;;;0.30;;
74538;SDS011;63087;51.086;-115.332;2022-09-17T07:01:38;2.00;;;0.50;;
74538;SDS011;63087;51.086;-115.332;2022-09-17T07:04:08;3.30;;;0.60;;
74538;SDS011;63087;51.086;-115.332;2022-09-17T07:06:36;2.90;;;0.70;;
74538;SDS011;63087;51.086;-115.332;2022-09-17T07:09:24;2.10;;;0.70;;
74538;SDS011;63087;51.086;-115.332;2022-09-17T07:11:51;3.80;;;0.60;;
74538;SDS011;63087;51.086;-115.332;2022-09-17T07:14:19;1.80;;;0.70;;
74538;SDS011;63087;51.086;-115.332;2022-09-17T07:16:46;1.40;;;0.60;;
74538;SDS011;63087;51.086;-115.332;2022-09-17T07:19:14;2.20;;;0.50;;
74538;SDS011;63087;51.086;-115.332;2022-09-17T07:21:41;1.30;;;0.40;;
74538;SDS011;63087;51.086;-115.332;2022-09-17T07:24:09;2.50;;;0.60;;
74538;SDS011;63087;51.086;-115.332;2022-09-17T07:26:36;2.40;;;0.60;;
74538;SDS011;63087;51.086;-115.332;2022-09-17T07:29:07;2.00;;;0.70;;
74538;SDS011;63087;51.086;-115.332;2022-09-17T07:31:36;3.30;;;0.90;;
74538;SDS011;63087;51.086;-115.332;2022-09-17T07:34:12;1.50;;;0.50;;
74538;SDS011;63087;51.086;-115.332;2022-09-17T07:36:40;1.70;;;0.40;;
74538;SDS011;63087;51.086;-115.332;2022-09-17T07:39:20;1.20;;;0.30;;
74538;SDS011;63087;51.086;-115.332;2022-09-17T07:44:50;1.20;;;0.40;;
74538;SDS011;63087;51.086;-115.332;2022-09-17T07:47:23;1.50;;;0.60;;
74538;SDS011;63087;51.086;-115.332;2022-09-17T07:49:51;2.50;;;0.70;;
74538;SDS011;63087;51.086;-115.332;2022-09-17T07:52:19;1.50;;;0.60;;
74538;SDS011;63087;51.086;-115.332;2022-09-17T07:54:47;1.40;;;0.50;;
74538;SDS011;63087;51.086;-115.332;2022-09-17T07:57:14;1.90;;;0.60;;
74538;SDS011;63087;51.086;-115.332;2022-09-17T08:00:05;3.50;;;0.80;;
74538;SDS011;63087;51.086;-115.332;2022-09-17T08:12:10;2.90;;;1.10;;
74538;SDS011;63087;51.086;-115.332;2022-09-17T08:14:37;2.50;;;1.00;;
74538;SDS011;63087;51.086;-115.332;2022-09-17T08:17:06;3.80;;;0.90;;
74538;SDS011;63087;51.086;-115.332;2022-09-17T08:19:34;2.30;;;1.10;;
74538;SDS011;63087;51.086;-115.332;2022-09-17T08:22:01;3.20;;;1.20;;
74538;SDS011;63087;51.086;-115.332;2022-09-17T08:24:38;2.10;;;0.60;;
74538;SDS011;63087;51.086;-115.332;2022-09-17T08:27:15;2.70;;;0.70;;
74538;SDS011;63087;51.086;-115.332;2022-09-17T08:29:43;1.50;;;0.50;;
74538;SDS011;63087;51.086;-115.332;2022-09-17T08:32:15;2.00;;;0.50;;
74538;SDS011;63087;51.086;-115.332;2022-09-17T08:45:12;1.10;;;0.40;;
74538;SDS011;63087;51.086;-115.332;2022-09-17T08:48:40;2.80;;;0.90;;
74538;SDS011;63087;51.086;-115.332;2022-09-17T08:57:58;1.60;;;0.60;;
74538;SDS011;63087;51.086;-115.332;2022-09-17T09:07:46;2.10;;;0.60;;
74538;SDS011;63087;51.086;-115.332;2022-09-17T09:10:46;3.80;;;0.80;;
74538;SDS011;63087;51.086;-115.332;2022-09-17T09:13:47;1.90;;;0.60;;
74538;SDS011;63087;51.086;-115.332;2022-09-17T09:16:39;1.80;;;0.60;;
74538;SDS011;63087;51.086;-115.332;2022-09-17T09:19:20;2.60;;;1.30;;
74538;SDS011;63087;51.086;-115.332;2022-09-17T09:22:03;2.90;;;1.00;;
74538;SDS011;63087;51.086;-115.332;2022-09-17T09:39:05;1.70;;;0.60;;
74538;SDS011;63087;51.086;-115.332;2022-09-17T09:42:13;1.50;;;0.50;;
74538;SDS011;63087;51.086;-115.332;2022-09-17T10:06:58;1.50;;;0.50;;
74538;SDS011;63087;51.086;-115.332;2022-09-17T10:09:37;0.90;;;0.30;;
74538;SDS011;63087;51.086;-115.332;2022-09-17T10:14:47;1.30;;;0.50;;
74538;SDS011;63087;51.086;-115.332;2022-09-17T10:20:15;2.10;;;0.30;;
74538;SDS011;63087;51.086;-115.332;2022-09-17T10:23:09;2.20;;;0.70;;
74538;SDS011;63087;51.086;-115.332;2022-09-17T10:26:01;1.50;;;0.60;;
74538;SDS011;63087;51.086;-115.332;2022-09-17T10:28:56;1.10;;;0.40;;
74538;SDS011;63087;51.086;-115.332;2022-09-17T10:31:52;2.10;;;0.60;;
74538;SDS011;63087;51.086;-115.332;2022-09-17T10:36:52;1.80;;;0.60;;
74538;SDS011;63087;51.086;-115.332;2022-09-17T11:17:59;1.50;;;0.60;;
74538;SDS011;63087;51.086;-115.332;2022-09-17T11:37:27;1.20;;;0.40;;
74538;SDS011;63087;51.086;-115.332;2022-09-17T11:40:37;1.80;;;0.50;;
74538;SDS011;63087;51.086;-115.332;2022-09-17T11:46:53;1.80;;;0.90;;
74538;SDS011;63087;51.086;-115.332;2022-09-17T11:49:59;1.30;;;0.50;;
74538;SDS011;63087;51.086;-115.332;2022-09-17T11:52:59;1.60;;;0.50;;
74538;SDS011;63087;51.086;-115.332;2022-09-17T11:55:39;1.80;;;0.60;;
74538;SDS011;63087;51.086;-115.332;2022-09-17T11:59:00;1.60;;;0.50;;
74538;SDS011;63087;51.086;-115.332;2022-09-17T12:08:46;0.90;;;0.30;;
74538;SDS011;63087;51.086;-115.332;2022-09-17T12:14:58;1.10;;;0.40;;
74538;SDS011;63087;51.086;-115.332;2022-09-17T12:22:04;1.60;;;0.40;;
74538;SDS011;63087;51.086;-115.332;2022-09-17T12:25:56;1.50;;;0.60;;
74538;SDS011;63087;51.086;-115.332;2022-09-17T12:37:14;1.70;;;0.90;;
74538;SDS011;63087;51.086;-115.332;2022-09-17T13:26:22;1.40;;;0.40;;
74538;SDS011;63087;51.086;-115.332;2022-09-17T13:46:35;0.90;;;0.40;;
74538;SDS011;63087;51.086;-115.332;2022-09-17T13:49:24;1.10;;;0.40;;
74538;SDS011;63087;51.086;-115.332;2022-09-17T13:51:56;1.10;;;0.30;;
74538;SDS011;63087;51.086;-115.332;2022-09-17T13:54:40;2.30;;;0.50;;
74538;SDS011;63087;51.086;-115.332;2022-09-17T13:57:20;1.50;;;0.70;;
74538;SDS011;63087;51.086;-115.332;2022-09-17T13:59:58;1.40;;;0.50;;
74538;SDS011;63087;51.086;-115.332;2022-09-17T14:02:32;1.10;;;0.40;;
74538;SDS011;63087;51.086;-115.332;2022-09-17T14:52:50;1.50;;;0.80;;
74538;SDS011;63087;51.086;-115.332;2022-09-17T14:55:49;1.40;;;0.50;;
74538;SDS011;63087;51.086;-115.332;2022-09-17T15:07:21;1.50;;;0.60;;
74538;SDS011;63087;51.086;-115.332;2022-09-17T15:10:12;1.00;;;0.30;;
74538;SDS011;63087;51.086;-115.332;2022-09-17T15:21:38;1.60;;;0.70;;
74538;SDS011;63087;51.086;-115.332;2022-09-17T15:51:42;1.40;;;0.50;;
74538;SDS011;63087;51.086;-115.332;2022-09-17T15:54:53;1.50;;;0.50;;
74538;SDS011;63087;51.086;-115.332;2022-09-17T15:58:33;1.50;;;0.40;;
74538;SDS011;63087;51.086;-115.332;2022-09-17T16:04:35;1.30;;;0.40;;
74538;SDS011;63087;51.086;-115.332;2022-09-17T16:07:27;1.20;;;0.40;;
74538;SDS011;63087;51.086;-115.332;2022-09-17T16:10:25;1.20;;;0.40;;
74538;SDS011;63087;51.086;-115.332;2022-09-17T16:13:12;1.40;;;0.70;;
74538;SDS011;63087;51.086;-115.332;2022-09-17T16:15:39;1.00;;;0.30;;
74538;SDS011;63087;51.086;-115.332;2022-09-17T16:18:13;1.80;;;0.50;;
74538;SDS011;63087;51.086;-115.332;2022-09-17T16:24:18;1.50;;;0.50;;
74538;SDS011;63087;51.086;-115.332;2022-09-17T16:30:14;1.20;;;0.60;;
74538;SDS011;63087;51.086;-115.332;2022-09-17T16:32:43;1.20;;;0.50;;
74538;SDS011;63087;51.086;-115.332;2022-09-17T16:35:21;1.00;;;0.30;;
74538;SDS011;63087;51.086;-115.332;2022-09-17T16:38:34;1.20;;;0.40;;
74538;SDS011;63087;51.086;-115.332;2022-09-17T16:43:54;1.30;;;0.40;;
74538;SDS011;63087;51.086;-115.332;2022-09-17T16:46:32;1.30;;;0.40;;
74538;SDS011;63087;51.086;-115.332;2022-09-17T16:49:03;1.60;;;0.40;;
74538;SDS011;63087;51.086;-115.332;2022-09-17T16:51:41;0.90;;;0.30;;
74538;SDS011;63087;51.086;-115.332;2022-09-17T16:54:49;1.40;;;0.50;;
74538;SDS011;63087;51.086;-115.332;2022-09-17T16:57:25;1.40;;;0.60;;
74538;SDS011;63087;51.086;-115.332;2022-09-17T17:03:31;1.20;;;0.40;;
74538;SDS011;63087;51.086;-115.332;2022-09-17T17:06:23;1.00;;;0.40;;
74538;SDS011;63087;51.086;-115.332;2022-09-17T17:09:01;1.20;;;0.40;;
74538;SDS011;63087;51.086;-115.332;2022-09-17T17:17:50;1.00;;;0.40;;
74538;SDS011;63087;51.086;-115.332;2022-09-17T17:20:20;1.80;;;0.40;;
74538;SDS011;63087;51.086;-115.332;2022-09-17T17:23:35;1.30;;;0.60;;
74538;SDS011;63087;51.086;-115.332;2022-09-17T17:26:13;1.50;;;0.50;;
74538;SDS011;63087;51.086;-115.332;2022-09-17T17:28:42;2.20;;;0.60;;
74538;SDS011;63087;51.086;-115.332;2022-09-17T17:31:14;1.40;;;0.50;;
74538;SDS011;63087;51.086;-115.332;2022-09-17T17:33:52;1.10;;;0.40;;
74538;SDS011;63087;51.086;-115.332;2022-09-17T17:36:36;1.10;;;0.40;;
74538;SDS011;63087;51.086;-115.332;2022-09-17T17:39:08;1.00;;;0.30;;
74538;SDS011;63087;51.086;-115.332;2022-09-17T17:41:55;1.60;;;0.60;;
74538;SDS011;63087;51.086;-115.332;2022-09-17T17:44:41;1.30;;;0.40;;
74538;SDS011;63087;51.086;-115.332;2022-09-17T17:47:20;1.80;;;0.50;;
74538;SDS011;63087;51.086;-115.332;2022-09-17T17:49:47;1.60;;;0.50;;
74538;SDS011;63087;51.086;-115.332;2022-09-17T17:52:14;3.40;;;0.50;;
74538;SDS011;63087;51.086;-115.332;2022-09-17T17:54:51;1.50;;;0.40;;
74538;SDS011;63087;51.086;-115.332;2022-09-17T17:57:19;2.00;;;0.40;;
74538;SDS011;63087;51.086;-115.332;2022-09-17T17:59:46;1.70;;;0.40;;
74538;SDS011;63087;51.086;-115.332;2022-09-17T18:02:13;2.10;;;0.50;;
74538;SDS011;63087;51.086;-115.332;2022-09-17T18:04:45;1.60;;;0.50;;
74538;SDS011;63087;51.086;-115.332;2022-09-17T18:07:12;2.50;;;0.60;;
74538;SDS011;63087;51.086;-115.332;2022-09-17T18:09:41;1.30;;;0.50;;
74538;SDS011;63087;51.086;-115.332;2022-09-17T18:12:09;1.20;;;0.50;;
74538;SDS011;63087;51.086;-115.332;2022-09-17T18:14:36;1.20;;;0.50;;
74538;SDS011;63087;51.086;-115.332;2022-09-17T18:17:03;2.00;;;0.40;;
74538;SDS011;63087;51.086;-115.332;2022-09-17T18:19:31;2.30;;;0.70;;
74538;SDS011;63087;51.086;-115.332;2022-09-17T18:22:01;1.60;;;0.60;;
74538;SDS011;63087;51.086;-115.332;2022-09-17T18:24:29;1.10;;;0.40;;
74538;SDS011;63087;51.086;-115.332;2022-09-17T18:26:56;1.50;;;0.60;;
74538;SDS011;63087;51.086;-115.332;2022-09-17T18:29:24;1.40;;;0.50;;
74538;SDS011;63087;51.086;-115.332;2022-09-17T18:31:51;1.50;;;0.50;;
74538;SDS011;63087;51.086;-115.332;2022-09-17T18:34:19;1.00;;;0.40;;
74538;SDS011;63087;51.086;-115.332;2022-09-17T18:36:46;1.10;;;0.50;;
74538;SDS011;63087;51.086;-115.332;2022-09-17T18:39:14;1.40;;;0.60;;
74538;SDS011;63087;51.086;-115.332;2022-09-17T18:41:51;1.20;;;0.50;;
74538;SDS011;63087;51.086;-115.332;2022-09-17T18:44:18;1.10;;;0.30;;
74538;SDS011;63087;51.086;-115.332;2022-09-17T18:46:46;1.00;;;0.40;;
74538;SDS011;63087;51.086;-115.332;2022-09-17T18:49:16;0.90;;;0.40;;
74538;SDS011;63087;51.086;-115.332;2022-09-17T18:51:55;0.90;;;0.30;;
74538;SDS011;63087;51.086;-115.332;2022-09-17T18:54:23;1.20;;;0.30;;
74538;SDS011;63087;51.086;-115.332;2022-09-17T18:56:51;1.40;;;0.40;;
74538;SDS011;63087;51.086;-115.332;2022-09-17T18:59:18;1.10;;;0.40;;
74538;SDS011;63087;51.086;-115.332;2022-09-17T19:01:46;1.30;;;0.40;;
74538;SDS011;63087;51.086;-115.332;2022-09-17T19:04:13;1.10;;;0.30;;
74538;SDS011;63087;51.086;-115.332;2022-09-17T19:06:41;0.90;;;0.40;;
74538;SDS011;63087;51.086;-115.332;2022-09-17T19:09:10;1.20;;;0.30;;
74538;SDS011;63087;51.086;-115.332;2022-09-17T19:11:38;1.20;;;0.40;;
74538;SDS011;63087;51.086;-115.332;2022-09-17T19:14:08;1.00;;;0.40;;
74538;SDS011;63087;51.086;-115.332;2022-09-17T19:16:35;1.90;;;0.40;;
74538;SDS011;63087;51.086;-115.332;2022-09-17T19:19:03;0.90;;;0.30;;
74538;SDS011;63087;51.086;-115.332;2022-09-17T19:21:31;1.20;;;0.30;;
74538;SDS011;63087;51.086;-115.332;2022-09-17T19:23:59;1.10;;;0.40;;
74538;SDS011;63087;51.086;-115.332;2022-09-17T19:26:31;1.00;;;0.40;;
74538;SDS011;63087;51.086;-115.332;2022-09-17T19:28:58;1.00;;;0.30;;
74538;SDS011;63087;51.086;-115.332;2022-09-17T19:31:26;0.80;;;0.30;;
74538;SDS011;63087;51.086;-115.332;2022-09-17T19:34:04;1.20;;;0.40;;
74538;SDS011;63087;51.086;-115.332;2022-09-17T19:36:35;1.30;;;0.30;;
74538;SDS011;63087;51.086;-115.332;2022-09-17T19:39:05;1.20;;;0.30;;
74538;SDS011;63087;51.086;-115.332;2022-09-17T19:41:34;1.30;;;0.30;;
74538;SDS011;63087;51.086;-115.332;2022-09-17T19:44:13;0.80;;;0.30;;
74538;SDS011;63087;51.086;-115.332;2022-09-17T19:46:43;1.40;;;0.40;;
74538;SDS011;63087;51.086;-115.332;2022-09-17T19:49:16;1.10;;;0.40;;
74538;SDS011;63087;51.086;-115.332;2022-09-17T19:51:49;1.00;;;0.40;;
74538;SDS011;63087;51.086;-115.332;2022-09-17T19:54:19;2.20;;;0.40;;
74538;SDS011;63087;51.086;-115.332;2022-09-17T19:56:48;1.00;;;0.30;;
74538;SDS011;63087;51.086;-115.332;2022-09-17T19:59:18;0.90;;;0.30;;
74538;SDS011;63087;51.086;-115.332;2022-09-17T20:01:47;1.20;;;0.30;;
74538;SDS011;63087;51.086;-115.332;2022-09-17T20:04:16;0.90;;;0.30;;
74538;SDS011;63087;51.086;-115.332;2022-09-17T20:09:30;0.90;;;0.30;;
74538;SDS011;63087;51.086;-115.332;2022-09-17T20:11:59;0.80;;;0.30;;
74538;SDS011;63087;51.086;-115.332;2022-09-17T20:14:28;0.80;;;0.30;;
74538;SDS011;63087;51.086;-115.332;2022-09-17T20:17:01;1.40;;;0.40;;
74538;SDS011;63087;51.086;-115.332;2022-09-17T20:19:34;1.10;;;0.40;;
74538;SDS011;63087;51.086;-115.332;2022-09-17T20:22:04;2.20;;;0.30;;
74538;SDS011;63087;51.086;-115.332;2022-09-17T20:24:37;2.20;;;0.40;;
74538;SDS011;63087;51.086;-115.332;2022-09-17T20:27:07;1.00;;;0.40;;
74538;SDS011;63087;51.086;-115.332;2022-09-17T20:29:38;1.30;;;0.40;;
74538;SDS011;63087;51.086;-115.332;2022-09-17T20:32:15;0.90;;;0.30;;
74538;SDS011;63087;51.086;-115.332;2022-09-17T20:34:46;1.00;;;0.30;;
74538;SDS011;63087;51.086;-115.332;2022-09-17T20:37:18;2.10;;;0.40;;
74538;SDS011;63087;51.086;-115.332;2022-09-17T20:39:46;1.50;;;0.40;;
74538;SDS011;63087;51.086;-115.332;2022-09-17T20:42:19;0.90;;;0.30;;
74538;SDS011;63087;51.086;-115.332;2022-09-17T20:44:51;1.00;;;0.30;;
74538;SDS011;63087;51.086;-115.332;2022-09-17T20:47:20;0.80;;;0.30;;
74538;SDS011;63087;51.086;-115.332;2022-09-17T20:49:54;0.90;;;0.40;;
74538;SDS011;63087;51.086;-115.332;2022-09-17T20:52:25;1.30;;;0.40;;
74538;SDS011;63087;51.086;-115.332;2022-09-17T20:54:55;0.80;;;0.30;;
74538;SDS011;63087;51.086;-115.332;2022-09-17T20:57:25;0.70;;;0.30;;
74538;SDS011;63087;51.086;-115.332;2022-09-17T20:59:54;0.80;;;0.30;;
74538;SDS011;63087;51.086;-115.332;2022-09-17T21:02:42;1.00;;;0.30;;
74538;SDS011;63087;51.086;-115.332;2022-09-17T21:05:19;0.90;;;0.30;;
74538;SDS011;63087;51.086;-115.332;2022-09-17T21:07:50;1.10;;;0.30;;
74538;SDS011;63087;51.086;-115.332;2022-09-17T21:10:18;1.30;;;0.30;;
74538;SDS011;63087;51.086;-115.332;2022-09-17T21:12:48;0.90;;;0.30;;
74538;SDS011;63087;51.086;-115.332;2022-09-17T21:15:22;1.20;;;0.40;;
74538;SDS011;63087;51.086;-115.332;2022-09-17T21:17:50;1.60;;;0.50;;
74538;SDS011;63087;51.086;-115.332;2022-09-17T21:20:17;0.90;;;0.40;;
74538;SDS011;63087;51.086;-115.332;2022-09-17T21:22:45;1.30;;;0.40;;
74538;SDS011;63087;51.086;-115.332;2022-09-17T21:25:15;1.50;;;0.30;;
74538;SDS011;63087;51.086;-115.332;2022-09-17T21:27:44;0.90;;;0.30;;
74538;SDS011;63087;51.086;-115.332;2022-09-17T21:30:13;1.20;;;0.40;;
74538;SDS011;63087;51.086;-115.332;2022-09-17T21:32:42;1.30;;;0.30;;
74538;SDS011;63087;51.086;-115.332;2022-09-17T21:35:09;1.20;;;0.40;;
74538;SDS011;63087;51.086;-115.332;2022-09-17T21:37:36;1.80;;;0.50;;
74538;SDS011;63087;51.086;-115.332;2022-09-17T21:40:12;1.60;;;0.40;;
74538;SDS011;63087;51.086;-115.332;2022-09-17T21:42:40;1.20;;;0.50;;
74538;SDS011;63087;51.086;-115.332;2022-09-17T21:45:10;1.10;;;0.50;;
74538;SDS011;63087;51.086;-115.332;2022-09-17T21:47:40;1.10;;;0.30;;
74538;SDS011;63087;51.086;-115.332;2022-09-17T21:50:08;0.90;;;0.30;;
74538;SDS011;63087;51.086;-115.332;2022-09-17T21:52:37;1.30;;;0.50;;
74538;SDS011;63087;51.086;-115.332;2022-09-17T21:55:05;0.90;;;0.30;;
74538;SDS011;63087;51.086;-115.332;2022-09-17T21:57:33;1.10;;;0.40;;
74538;SDS011;63087;51.086;-115.332;2022-09-17T22:00:07;1.50;;;0.40;;
74538;SDS011;63087;51.086;-115.332;2022-09-17T22:02:38;1.10;;;0.50;;
74538;SDS011;63087;51.086;-115.332;2022-09-17T22:05:07;1.10;;;0.30;;
74538;SDS011;63087;51.086;-115.332;2022-09-17T22:07:37;1.20;;;0.30;;